Time;durP1;ratioP1;P1;durP2;ratioP2;P2;SDS_P1;SDS_P2;PMS_P1;PMS_P2;Temp;Humidity;BMP_temperature;BMP_pressure;BME280_temperature;BME280_humidity;BME280_pressure;Samples;Min_cycle;Max_cycle;Signal;HPM_P1;HPM_P2
2023/01/21 00:02:00;;;;;;;20.27;12.30;;;1.70;99.90;;;;;;4953841;29;20214;-48
2023/01/21 00:04:27;;;;;;;24.15;12.60;;;1.50;99.90;;;;;;4953808;28;20282;-48
2023/01/21 00:06:56;;;;;;;18.98;10.52;;;1.50;99.90;;;;;;4954229;28;20226;-48
2023/01/21 00:09:22;;;;;;;22.30;11.65;;;1.50;99.90;;;;;;4953906;28;20198;-48
2023/01/21 00:11:49;;;;;;;16.77;12.60;;;1.60;99.90;;;;;;4953763;29;20660;-48
2023/01/21 00:14:15;;;;;;;17.85;10.93;;;1.40;99.90;;;;;;4953781;29;20203;-48
2023/01/21 00:16:42;;;;;;;15.52;9.40;;;1.30;99.90;;;;;;4953542;28;20735;-48
2023/01/21 00:19:08;;;;;;;13.95;9.50;;;1.50;99.90;;;;;;4953267;28;20219;-48
2023/01/21 00:21:35;;;;;;;17.30;9.77;;;1.30;99.90;;;;;;4953720;28;20210;-48
2023/01/21 00:24:03;;;;;;;22.98;11.75;;;1.30;99.90;;;;;;5020167;28;20222;-48
2023/01/21 00:26:30;;;;;;;16.95;10.15;;;1.30;99.90;;;;;;4953387;28;20232;-48
2023/01/21 00:28:57;;;;;;;16.85;11.27;;;1.30;99.90;;;;;;5019465;28;20269;-48
2023/01/21 00:31:24;;;;;;;15.00;9.73;;;1.30;99.90;;;;;;5019938;28;20217;-48
2023/01/21 00:33:52;;;;;;;16.38;10.48;;;1.50;99.90;;;;;;4953400;28;20610;-48
2023/01/21 00:36:20;;;;;;;14.93;9.35;;;1.20;99.90;;;;;;4953532;28;20223;-48
2023/01/21 00:38:48;;;;;;;17.40;9.65;;;0.60;99.90;;;;;;4953218;28;20263;-48
2023/01/21 00:41:17;;;;;;;15.70;9.38;;;1.20;99.90;;;;;;4953940;28;20585;-48
2023/01/21 00:43:44;;;;;;;15.57;9.73;;;1.10;99.90;;;;;;4953593;29;20258;-48
2023/01/21 00:46:11;;;;;;;10.43;8.75;;;1.40;99.90;;;;;;4953188;28;20636;-48
2023/01/21 00:48:37;;;;;;;16.80;9.57;;;1.20;99.90;;;;;;4953101;28;20207;-48
2023/01/21 00:51:04;;;;;;;16.85;11.02;;;0.60;99.90;;;;;;4953210;29;20203;-48
2023/01/21 00:53:33;;;;;;;14.38;9.07;;;1.00;99.90;;;;;;4953247;28;20207;-48
2023/01/21 00:56:00;;;;;;;17.58;10.30;;;1.10;99.90;;;;;;4953069;28;20221;-48
2023/01/21 00:58:29;;;;;;;16.55;9.63;;;1.30;99.90;;;;;;5018800;28;20661;-48
2023/01/21 01:01:01;;;;;;;14.00;9.05;;;1.10;99.90;;;;;;4952955;28;20220;-48
2023/01/21 01:03:27;;;;;;;20.77;9.80;;;1.30;99.90;;;;;;4953012;28;20680;-48
2023/01/21 01:05:54;;;;;;;13.70;8.50;;;1.50;99.90;;;;;;4952821;28;20647;-48
2023/01/21 01:08:21;;;;;;;15.25;8.57;;;1.50;99.90;;;;;;4952694;28;20211;-48
2023/01/21 01:10:47;;;;;;;18.85;10.30;;;1.20;99.90;;;;;;4952878;28;20221;-48
2023/01/21 01:13:14;;;;;;;15.77;10.52;;;1.20;99.90;;;;;;4952889;28;20210;-48
2023/01/21 01:15:42;;;;;;;14.60;9.23;;;1.30;99.90;;;;;;4952887;28;20242;-48
2023/01/21 01:18:08;;;;;;;15.65;9.65;;;0.80;99.90;;;;;;4952375;28;20204;-48
2023/01/21 01:20:35;;;;;;;14.45;8.52;;;0.80;99.90;;;;;;4953301;29;20229;-48
2023/01/21 01:23:01;;;;;;;13.43;8.07;;;1.10;99.90;;;;;;4953072;29;20211;-48
2023/01/21 01:25:28;;;;;;;10.65;7.97;;;1.20;99.90;;;;;;4952903;28;20230;-48
2023/01/21 01:27:54;;;;;;;12.68;8.88;;;1.20;99.90;;;;;;4952701;29;20202;-48
2023/01/21 01:30:21;;;;;;;14.07;9.27;;;1.40;99.90;;;;;;4952266;28;20202;-48
2023/01/21 01:32:49;;;;;;;15.07;8.05;;;1.30;99.90;;;;;;4952693;28;20436;-49
2023/01/21 01:35:15;;;;;;;15.30;9.30;;;1.20;99.90;;;;;;4952507;28;20576;-48
2023/01/21 01:37:42;;;;;;;17.58;8.52;;;1.40;99.90;;;;;;5018808;28;20207;-48
2023/01/21 01:40:10;;;;;;;16.77;9.93;;;1.50;99.90;;;;;;4952106;28;20219;-48
2023/01/21 01:42:37;;;;;;;17.77;10.63;;;1.40;99.90;;;;;;4952222;29;20199;-48
2023/01/21 01:45:06;;;;;;;19.55;10.63;;;1.50;99.90;;;;;;4952088;28;20198;-48
2023/01/21 01:47:37;;;;;;;19.45;11.00;;;1.40;99.90;;;;;;4951862;28;20208;-48
2023/01/21 01:50:08;;;;;;;22.65;10.85;;;1.50;99.90;;;;;;4952032;28;20703;-48
2023/01/21 01:52:35;;;;;;;19.08;12.43;;;1.40;99.90;;;;;;4951882;28;20202;-48
2023/01/21 01:55:04;;;;;;;26.80;13.80;;;1.00;99.90;;;;;;5018136;28;20210;-48
2023/01/21 01:57:35;;;;;;;22.83;12.02;;;1.50;99.90;;;;;;4952363;28;20221;-48
2023/01/21 02:00:05;;;;;;;22.45;13.25;;;1.40;99.90;;;;;;4951726;28;20227;-48
2023/01/21 02:02:39;;;;;;;26.02;12.82;;;1.60;99.90;;;;;;4951988;28;20234;-48
2023/01/21 02:05:09;;;;;;;25.38;13.15;;;1.60;99.90;;;;;;4951857;28;20214;-48
2023/01/21 02:07:39;;;;;;;27.98;13.40;;;1.40;99.90;;;;;;4951994;29;20629;-48
2023/01/21 02:10:07;;;;;;;24.77;12.85;;;1.60;99.90;;;;;;4951642;28;20608;-48
2023/01/21 02:12:35;;;;;;;23.83;12.15;;;1.60;99.90;;;;;;4951946;28;20203;-48
2023/01/21 02:15:03;;;;;;;29.85;13.35;;;1.60;99.90;;;;;;4951970;28;20210;-48
2023/01/21 02:17:44;;;;;;;26.23;13.63;;;1.60;99.90;;;;;;4951611;28;20203;-48
2023/01/21 02:20:41;;;;;;;20.58;11.65;;;1.60;99.90;;;;;;4951504;28;20224;-48
2023/01/21 02:23:15;;;;;;;18.83;11.32;;;1.60;99.90;;;;;;4951953;28;20219;-49
2023/01/21 02:26:17;;;;;;;20.60;13.68;;;1.60;99.90;;;;;;4951579;28;20226;-48
2023/01/21 02:29:09;;;;;;;21.17;13.75;;;1.60;99.90;;;;;;4951153;29;20215;-48
2023/01/21 02:31:53;;;;;;;21.15;12.80;;;1.80;99.90;;;;;;4961999;28;20676;-48
2023/01/21 02:34:28;;;;;;;25.23;12.20;;;1.50;99.90;;;;;;4951650;28;20203;-48
2023/01/21 02:37:04;;;;;;;22.58;12.95;;;1.50;99.90;;;;;;4951523;28;20256;-48
2023/01/21 02:39:48;;;;;;;29.52;13.55;;;1.60;99.90;;;;;;4951143;28;20225;-48
2023/01/21 02:42:24;;;;;;;23.45;12.93;;;1.50;99.90;;;;;;4951720;28;20210;-48
2023/01/21 02:44:59;;;;;;;27.52;13.32;;;1.90;99.90;;;;;;4951677;28;20606;-48
2023/01/21 02:47:29;;;;;;;23.30;12.75;;;1.10;99.90;;;;;;4951310;29;20199;-48
2023/01/21 02:50:02;;;;;;;28.00;14.45;;;1.70;99.90;;;;;;4951126;29;20192;-48
2023/01/21 02:52:29;;;;;;;25.15;13.65;;;1.60;99.90;;;;;;4951509;28;20274;-48
2023/01/21 02:54:57;;;;;;;28.20;16.25;;;1.60;99.90;;;;;;4951415;28;20417;-48
2023/01/21 02:57:41;;;;;;;24.50;13.70;;;1.90;99.90;;;;;;4951510;29;20279;-48
2023/01/21 03:00:12;;;;;;;24.83;14.05;;;1.80;99.90;;;;;;5017014;28;20285;-48
2023/01/21 03:03:04;;;;;;;25.15;13.65;;;1.70;99.90;;;;;;4951322;29;20564;-48
2023/01/21 03:05:47;;;;;;;24.60;12.80;;;1.60;99.90;;;;;;4951306;28;20599;-48
2023/01/21 03:08:20;;;;;;;26.25;15.85;;;1.60;99.90;;;;;;4950915;29;20210;-48
2023/01/21 03:10:53;;;;;;;22.48;13.63;;;1.50;99.90;;;;;;4951111;29;20199;-48
2023/01/21 03:19:00;;;;;;;22.17;13.43;;;1.70;99.90;;;;;;4950877;29;20195;-49
2023/01/21 03:21:30;;;;;;;20.58;13.35;;;1.70;99.90;;;;;;4951133;28;20227;-48
2023/01/21 03:23:59;;;;;;;24.88;14.40;;;1.80;99.90;;;;;;4950841;29;20203;-48
2023/01/21 03:26:31;;;;;;;24.58;12.15;;;1.50;99.90;;;;;;4951039;28;20234;-48
2023/01/21 03:29:02;;;;;;;29.58;13.30;;;1.70;99.90;;;;;;4950840;28;20199;-48
2023/01/21 03:31:32;;;;;;;30.67;13.80;;;1.80;99.90;;;;;;4950786;29;20196;-48
2023/01/21 03:34:03;;;;;;;22.02;13.38;;;1.80;99.90;;;;;;4951288;28;20332;-48
2023/01/21 03:36:37;;;;;;;24.20;14.07;;;1.90;99.90;;;;;;4950828;28;20225;-48
2023/01/21 03:39:10;;;;;;;21.40;13.13;;;1.90;99.90;;;;;;4950501;28;20277;-48
2023/01/21 03:41:40;;;;;;;21.30;12.70;;;1.80;99.90;;;;;;4950762;28;20222;-47
2023/01/21 03:44:06;;;;;;;22.95;12.20;;;1.70;99.90;;;;;;4950872;28;20199;-48
2023/01/21 03:46:39;;;;;;;23.02;14.85;;;2.10;99.90;;;;;;4950689;28;20223;-48
2023/01/21 03:49:09;;;;;;;21.10;12.05;;;2.10;99.90;;;;;;4950706;28;20206;-48
2023/01/21 03:51:41;;;;;;;23.90;12.40;;;1.90;99.90;;;;;;4950899;28;20210;-48
2023/01/21 03:54:08;;;;;;;21.15;13.80;;;2.10;99.90;;;;;;4950716;29;20207;-48
2023/01/21 03:56:34;;;;;;;17.45;11.23;;;1.80;99.90;;;;;;4950722;28;20234;-49
2023/01/21 03:59:01;;;;;;;18.15;10.75;;;1.80;99.90;;;;;;4950540;28;20204;-49
2023/01/21 04:01:28;;;;;;;16.33;11.15;;;1.90;99.90;;;;;;4950629;28;20231;-49
2023/01/21 04:03:54;;;;;;;16.52;9.98;;;1.80;99.90;;;;;;4950662;29;20205;-48
2023/01/21 04:06:23;;;;;;;20.02;11.10;;;1.60;99.90;;;;;;4950764;28;20234;-48
2023/01/21 04:08:50;;;;;;;16.15;10.07;;;1.90;99.90;;;;;;4950177;28;20214;-47
2023/01/21 04:11:17;;;;;;;19.65;9.98;;;1.70;99.90;;;;;;4950506;29;20206;-47
2023/01/21 04:13:44;;;;;;;15.57;10.25;;;1.80;99.90;;;;;;4950947;28;20672;-48
2023/01/21 04:16:10;;;;;;;19.70;10.15;;;1.70;99.90;;;;;;4953898;28;20242;-49
2023/01/21 04:18:37;;;;;;;14.63;9.80;;;2.00;99.90;;;;;;4953530;28;20203;-49
2023/01/21 04:21:04;;;;;;;22.90;9.90;;;1.80;99.90;;;;;;4953828;29;20242;-49
2023/01/21 04:23:30;;;;;;;15.55;9.77;;;1.50;99.90;;;;;;4953505;29;20208;-49
2023/01/21 04:25:58;;;;;;;14.50;9.43;;;2.00;99.90;;;;;;4953667;28;20592;-49
2023/01/21 04:28:25;;;;;;;14.45;8.38;;;1.10;99.90;;;;;;4953381;28;20672;-49
2023/01/21 04:30:51;;;;;;;13.60;8.55;;;2.30;99.90;;;;;;4953672;28;20201;-49
2023/01/21 04:33:18;;;;;;;15.05;9.48;;;1.80;99.90;;;;;;4953379;29;20207;-49
2023/01/21 04:35:45;;;;;;;14.48;9.15;;;1.80;99.90;;;;;;4953648;28;20227;-49
2023/01/21 04:38:12;;;;;;;12.32;8.60;;;1.70;99.90;;;;;;4953101;28;20672;-47
2023/01/21 04:40:39;;;;;;;14.50;8.73;;;1.60;99.90;;;;;;4953373;28;20236;-48
2023/01/21 04:43:07;;;;;;;11.73;8.18;;;1.60;99.90;;;;;;4953625;28;20195;-48
2023/01/21 04:45:34;;;;;;;12.88;8.38;;;1.90;99.90;;;;;;4953459;28;20219;-48
2023/01/21 04:48:00;;;;;;;11.40;7.97;;;1.70;99.90;;;;;;4953624;28;20683;-48
2023/01/21 04:50:27;;;;;;;15.23;8.35;;;1.80;99.90;;;;;;4953081;29;20203;-48
2023/01/21 04:52:53;;;;;;;14.00;9.20;;;1.60;99.90;;;;;;4953793;28;20200;-48
2023/01/21 04:55:20;;;;;;;11.52;7.72;;;1.70;99.90;;;;;;4953425;28;20227;-48
2023/01/21 04:57:46;;;;;;;18.20;7.53;;;1.60;99.90;;;;;;4953274;29;20223;-48
2023/01/21 05:00:16;;;;;;;14.70;9.13;;;1.90;99.90;;;;;;4953289;28;20199;-48
2023/01/21 05:02:43;;;;;;;13.43;9.82;;;1.60;99.90;;;;;;4953523;28;20204;-48
2023/01/21 05:05:09;;;;;;;12.65;8.70;;;1.80;99.90;;;;;;4953054;28;20198;-48
2023/01/21 05:07:36;;;;;;;10.88;7.70;;;1.50;99.90;;;;;;4953004;29;20203;-48
2023/01/21 05:10:03;;;;;;;12.50;8.05;;;1.40;99.90;;;;;;4953102;28;20286;-48
2023/01/21 05:12:30;;;;;;;16.33;8.82;;;1.50;99.90;;;;;;4953212;29;20199;-48
2023/01/21 05:14:57;;;;;;;12.43;7.47;;;1.60;99.90;;;;;;4953195;28;20576;-48
2023/01/21 05:17:25;;;;;;;15.43;8.98;;;1.60;99.90;;;;;;4953194;28;20257;-48
2023/01/21 05:19:52;;;;;;;14.18;8.40;;;1.60;99.90;;;;;;4952449;28;20540;-48
2023/01/21 05:22:18;;;;;;;12.30;8.57;;;1.90;99.90;;;;;;4952582;29;20228;-48
2023/01/21 05:24:45;;;;;;;11.77;7.95;;;1.70;99.90;;;;;;4952822;29;20199;-48
2023/01/21 05:27:11;;;;;;;11.82;8.25;;;1.60;99.90;;;;;;4951303;28;20227;-48
2023/01/21 05:29:38;;;;;;;15.77;8.85;;;1.70;99.90;;;;;;4952310;29;20211;-48
2023/01/21 05:32:05;;;;;;;14.30;9.45;;;1.90;99.90;;;;;;4952833;29;20605;-48
2023/01/21 05:34:33;;;;;;;14.82;8.25;;;1.70;99.90;;;;;;4952574;29;20208;-48
2023/01/21 05:36:59;;;;;;;11.73;8.02;;;1.80;99.90;;;;;;4952394;28;20230;-48
2023/01/21 05:39:26;;;;;;;13.32;7.90;;;1.50;99.90;;;;;;4952531;28;20202;-49
2023/01/21 05:41:52;;;;;;;13.75;8.70;;;1.70;99.90;;;;;;4952689;28;20236;-48
2023/01/21 05:44:19;;;;;;;14.52;9.23;;;1.50;99.90;;;;;;4952444;29;20207;-48
2023/01/21 05:46:46;;;;;;;11.88;7.47;;;1.80;99.90;;;;;;4952590;28;20600;-48
2023/01/21 05:49:12;;;;;;;10.68;7.90;;;1.90;99.90;;;;;;4952200;28;20215;-48
2023/01/21 05:51:40;;;;;;;14.85;9.07;;;1.50;99.90;;;;;;4952352;28;20691;-48
2023/01/21 05:54:07;;;;;;;12.52;7.88;;;1.40;99.90;;;;;;4952636;29;20282;-48
2023/01/21 05:56:34;;;;;;;17.83;8.38;;;2.10;99.90;;;;;;4952192;28;20386;-49
2023/01/21 05:59:00;;;;;;;12.23;8.70;;;1.80;99.90;;;;;;4952095;28;20230;-48
2023/01/21 06:01:27;;;;;;;17.30;10.45;;;1.80;99.90;;;;;;4952194;28;20721;-48
2023/01/21 06:03:53;;;;;;;13.18;8.55;;;1.80;99.90;;;;;;4951958;29;20200;-48
2023/01/21 06:06:21;;;;;;;14.35;8.32;;;1.70;99.90;;;;;;4952151;28;20234;-48
2023/01/21 06:08:49;;;;;;;15.68;9.82;;;1.80;99.90;;;;;;4952082;28;20204;-48
2023/01/21 06:11:15;;;;;;;14.43;9.25;;;1.70;99.90;;;;;;4952135;28;20200;-47
2023/01/21 06:13:42;;;;;;;15.93;8.90;;;1.90;99.90;;;;;;5018401;28;20256;-47
2023/01/21 06:16:08;;;;;;;16.50;9.20;;;1.80;99.90;;;;;;4952820;28;20226;-48
2023/01/21 06:18:35;;;;;;;14.20;9.80;;;1.70;99.90;;;;;;4952501;28;20674;-49
2023/01/21 06:21:02;;;;;;;15.55;9.65;;;1.80;99.90;;;;;;4952012;29;20226;-49
2023/01/21 06:23:28;;;;;;;18.48;9.52;;;1.80;99.90;;;;;;4952494;28;20199;-48
2023/01/21 06:26:00;;;;;;;17.42;9.60;;;1.80;99.90;;;;;;4952633;28;20227;-47
2023/01/21 06:28:27;;;;;;;16.42;11.52;;;1.20;99.90;;;;;;5018118;28;20203;-49
2023/01/21 06:30:53;;;;;;;17.17;11.30;;;1.20;99.90;;;;;;4952504;28;20551;-48
2023/01/21 06:33:20;;;;;;;21.20;10.63;;;1.70;99.90;;;;;;5018455;28;20208;-48
2023/01/21 06:35:47;;;;;;;23.25;12.35;;;1.90;99.90;;;;;;4951963;28;20223;-49
2023/01/21 06:38:13;;;;;;;21.23;11.75;;;1.90;99.90;;;;;;4952148;29;20203;-49
2023/01/21 06:40:40;;;;;;;21.25;12.57;;;2.40;99.90;;;;;;4951619;28;20207;-49
2023/01/21 06:43:08;;;;;;;21.20;13.30;;;1.90;99.90;;;;;;4951770;28;20279;-49
2023/01/21 06:45:35;;;;;;;17.20;12.25;;;2.00;99.90;;;;;;4951435;28;20228;-46
2023/01/21 06:48:01;;;;;;;25.02;13.70;;;2.10;99.90;;;;;;4951542;28;20668;-47
2023/01/21 06:50:28;;;;;;;19.00;13.48;;;1.90;99.90;;;;;;4951341;28;20207;-49
2023/01/21 06:52:55;;;;;;;23.33;14.75;;;2.60;99.90;;;;;;4951922;28;20238;-48
2023/01/21 06:55:21;;;;;;;24.60;15.43;;;2.00;99.90;;;;;;4951303;28;20227;-50
2023/01/21 06:57:48;;;;;;;24.02;15.68;;;2.00;99.90;;;;;;4951146;28;20207;-47
2023/01/21 07:00:17;;;;;;;28.02;16.30;;;2.10;99.90;;;;;;4950960;29;20571;-46
2023/01/21 07:02:44;;;;;;;25.20;15.20;;;2.00;99.90;;;;;;4951396;28;20640;-47
2023/01/21 07:05:10;;;;;;;23.15;15.23;;;1.80;99.90;;;;;;4951136;28;20199;-47
2023/01/21 07:07:37;;;;;;;22.33;14.48;;;2.20;99.90;;;;;;4951540;28;20204;-47
2023/01/21 07:10:04;;;;;;;26.08;16.88;;;1.90;99.90;;;;;;4951070;28;20203;-50
2023/01/21 07:12:31;;;;;;;25.23;16.08;;;2.00;99.90;;;;;;4951139;29;20215;-47
2023/01/21 07:14:57;;;;;;;23.13;16.15;;;2.00;99.90;;;;;;4951347;28;20211;-46
2023/01/21 07:17:25;;;;;;;31.60;15.75;;;1.90;99.90;;;;;;4951120;28;20206;-47
2023/01/21 07:19:52;;;;;;;25.42;16.40;;;2.00;99.90;;;;;;4950741;28;20214;-47
2023/01/21 07:22:18;;;;;;;20.73;15.70;;;1.80;99.90;;;;;;4951163;28;20226;-49
2023/01/21 07:24:45;;;;;;;23.48;16.67;;;2.20;99.90;;;;;;4952107;28;20199;-47
2023/01/21 07:27:12;;;;;;;25.95;15.35;;;1.90;99.90;;;;;;4950780;28;20215;-47
2023/01/21 07:29:38;;;;;;;22.35;14.32;;;1.40;99.90;;;;;;4950829;28;20203;-47
2023/01/21 07:32:05;;;;;;;23.40;17.25;;;1.70;99.90;;;;;;4951113;28;20699;-47
2023/01/21 07:34:33;;;;;;;23.70;16.17;;;1.90;99.90;;;;;;4951707;28;20207;-47
2023/01/21 07:36:59;;;;;;;27.33;16.40;;;2.50;99.90;;;;;;4951126;28;20224;-49
2023/01/21 07:39:26;;;;;;;24.75;17.27;;;2.20;99.90;;;;;;4950528;28;20203;-47
2023/01/21 07:41:53;;;;;;;24.80;15.60;;;1.70;99.90;;;;;;4950735;29;20223;-49
2023/01/21 07:44:20;;;;;;;23.70;15.30;;;2.00;99.90;;;;;;4950773;28;20199;-49
2023/01/21 07:46:46;;;;;;;23.83;17.63;;;2.10;99.90;;;;;;4950542;28;20230;-48
2023/01/21 07:49:16;;;;;;;24.23;17.20;;;1.90;99.90;;;;;;4951531;28;20295;-48
2023/01/21 07:51:44;;;;;;;22.23;15.00;;;1.90;99.90;;;;;;4954213;28;20199;-48
2023/01/21 07:54:11;;;;;;;26.00;17.55;;;2.30;99.90;;;;;;4954070;28;20204;-48
2023/01/21 07:56:37;;;;;;;23.33;16.13;;;1.70;99.90;;;;;;4954269;28;20731;-48
2023/01/21 07:59:04;;;;;;;20.30;14.73;;;2.00;99.90;;;;;;4953618;28;20207;-47
2023/01/21 08:01:31;;;;;;;20.98;15.15;;;1.90;99.90;;;;;;4953967;28;20688;-47
2023/01/21 08:03:58;;;;;;;18.75;14.93;;;2.00;99.90;;;;;;4953962;28;20214;-47
2023/01/21 08:06:25;;;;;;;26.38;17.30;;;1.40;99.90;;;;;;4953813;28;20238;-47
2023/01/21 08:08:52;;;;;;;24.08;15.60;;;2.10;99.90;;;;;;4953390;29;20200;-48
2023/01/21 08:11:19;;;;;;;21.40;12.98;;;2.00;99.90;;;;;;5020132;28;20211;-49
2023/01/21 08:13:46;;;;;;;24.60;14.68;;;2.00;99.90;;;;;;4953715;29;20583;-48
2023/01/21 08:16:12;;;;;;;18.85;13.30;;;2.00;99.90;;;;;;5020819;28;20238;-48
2023/01/21 08:18:39;;;;;;;21.58;13.57;;;1.70;99.90;;;;;;4953371;28;20210;-49
2023/01/21 08:21:06;;;;;;;21.88;15.00;;;2.10;99.90;;;;;;4953532;28;20577;-48
2023/01/21 08:23:33;;;;;;;20.67;14.57;;;2.00;99.90;;;;;;4953906;28;20314;-48
2023/01/21 08:26:04;;;;;;;22.38;16.08;;;2.00;99.90;;;;;;4953310;28;20219;-48
2023/01/21 08:28:31;;;;;;;19.85;15.55;;;2.20;99.90;;;;;;4953147;28;20203;-48
2023/01/21 08:31:03;;;;;;;23.52;14.95;;;2.40;99.90;;;;;;4953418;29;20257;-48
2023/01/21 08:33:30;;;;;;;20.55;14.65;;;2.30;99.90;;;;;;4953476;29;20210;-49
2023/01/21 08:35:59;;;;;;;22.77;15.45;;;1.80;99.90;;;;;;4953667;28;20223;-48
2023/01/21 08:38:26;;;;;;;26.42;14.60;;;2.20;99.90;;;;;;4953291;28;20283;-48
2023/01/21 08:40:52;;;;;;;20.60;15.02;;;2.40;99.90;;;;;;4953949;28;20200;-49
2023/01/21 08:43:20;;;;;;;19.55;14.07;;;2.10;99.90;;;;;;4953299;29;20223;-48
2023/01/21 08:45:47;;;;;;;21.52;13.82;;;2.50;99.90;;;;;;4954107;28;20256;-47
2023/01/21 08:48:13;;;;;;;16.15;12.23;;;2.60;99.90;;;;;;4954068;28;20559;-48
2023/01/21 08:50:40;;;;;;;17.20;12.02;;;2.60;99.90;;;;;;4953759;29;20196;-49
2023/01/21 08:53:07;;;;;;;18.88;12.55;;;2.60;99.90;;;;;;4953677;29;20199;-49
2023/01/21 08:55:34;;;;;;;19.73;12.98;;;2.30;99.90;;;;;;4953333;28;20273;-48
2023/01/21 08:58:00;;;;;;;19.67;14.27;;;2.40;99.90;;;;;;5019203;28;20222;-49
2023/01/21 09:00:28;;;;;;;19.25;14.18;;;2.50;99.90;;;;;;4952862;28;20200;-48
2023/01/21 09:02:55;;;;;;;17.27;14.05;;;2.30;99.90;;;;;;4952579;29;20215;-49
2023/01/21 09:05:22;;;;;;;19.73;14.13;;;2.30;99.90;;;;;;5018920;28;20715;-48
2023/01/21 09:07:48;;;;;;;24.80;14.85;;;2.60;99.90;;;;;;5018910;28;20250;-49
2023/01/21 09:10:59;;;;;;;24.05;14.68;;;2.50;99.90;;;;;;5019896;28;20207;-48
2023/01/21 09:13:06;;;;;;;19.77;13.45;;;2.40;99.90;;;;;;4953058;28;20231;-49
2023/01/21 09:15:38;;;;;;;20.30;13.85;;;2.60;99.90;;;;;;4953017;28;20211;-49
2023/01/21 09:18:05;;;;;;;17.85;13.15;;;2.80;99.90;;;;;;4952472;29;20195;-49
2023/01/21 09:20:32;;;;;;;19.27;14.70;;;2.60;99.90;;;;;;4952693;28;20210;-48
2023/01/21 09:22:58;;;;;;;18.45;13.25;;;2.40;99.90;;;;;;4952839;28;20226;-48
2023/01/21 09:25:25;;;;;;;21.70;13.80;;;2.90;99.90;;;;;;4952945;28;20226;-48
2023/01/21 09:27:52;;;;;;;17.10;11.95;;;2.80;99.90;;;;;;4952197;28;20274;-48
2023/01/21 09:30:18;;;;;;;21.42;14.73;;;2.20;99.90;;;;;;4951723;29;20207;-48
2023/01/21 09:32:46;;;;;;;21.45;14.23;;;3.00;99.90;;;;;;4952486;29;20195;-49
2023/01/21 09:35:13;;;;;;;20.10;13.75;;;2.80;99.90;;;;;;4952684;28;20227;-48
2023/01/21 09:37:40;;;;;;;19.75;13.85;;;2.70;99.90;;;;;;4952819;28;20203;-48
2023/01/21 09:40:08;;;;;;;24.13;13.88;;;3.00;99.90;;;;;;4951954;28;20200;-48
2023/01/21 09:42:35;;;;;;;21.70;15.25;;;2.80;99.90;;;;;;4952181;29;20226;-48
2023/01/21 09:45:03;;;;;;;22.40;14.98;;;3.00;99.90;;;;;;4951957;28;20238;-48
2023/01/21 09:47:33;;;;;;;21.55;15.10;;;2.90;99.90;;;;;;4951850;29;20192;-48
2023/01/21 09:50:06;;;;;;;19.23;14.30;;;3.00;99.90;;;;;;4952132;28;20302;-48
2023/01/21 09:52:38;;;;;;;20.83;14.43;;;3.10;99.90;;;;;;4952127;28;20191;-48
2023/01/21 09:55:12;;;;;;;22.25;14.48;;;3.00;99.90;;;;;;4952526;28;20692;-48
2023/01/21 09:57:52;;;;;;;21.13;16.08;;;3.20;99.90;;;;;;4952512;28;20562;-48
2023/01/21 10:00:31;;;;;;;23.98;15.35;;;3.10;99.90;;;;;;4951637;29;20203;-48
2023/01/21 10:03:03;;;;;;;26.75;16.73;;;3.30;99.90;;;;;;4952210;29;20226;-48
2023/01/21 10:05:51;;;;;;;23.17;15.70;;;2.60;99.90;;;;;;4951839;28;20223;-49
2023/01/21 10:08:27;;;;;;;28.85;17.10;;;3.30;99.90;;;;;;4951936;29;20204;-48
2023/01/21 10:10:59;;;;;;;21.13;13.80;;;3.10;99.90;;;;;;4951919;29;20210;-48
2023/01/21 10:13:38;;;;;;;24.92;15.63;;;3.20;99.90;;;;;;4951610;28;20207;-48
2023/01/21 10:16:11;;;;;;;23.45;15.27;;;3.20;99.90;;;;;;4952336;28;20227;-48
2023/01/21 10:18:45;;;;;;;26.40;15.35;;;3.20;99.90;;;;;;4951632;29;20203;-48
2023/01/21 10:21:22;;;;;;;22.45;14.00;;;3.30;99.90;;;;;;4951733;29;20196;-48
2023/01/21 10:23:56;;;;;;;25.60;15.10;;;3.20;99.90;;;;;;4952232;28;20219;-49
2023/01/21 10:26:24;;;;;;;19.33;14.02;;;3.00;99.90;;;;;;4951430;28;20712;-48
2023/01/21 10:28:53;;;;;;;19.40;13.55;;;3.40;99.90;;;;;;4951259;28;20211;-48
2023/01/21 10:31:23;;;;;;;20.58;13.85;;;3.50;99.90;;;;;;4951440;28;20218;-47
2023/01/21 10:33:50;;;;;;;26.33;12.27;;;3.30;99.90;;;;;;5017683;28;20231;-48
2023/01/21 10:36:40;;;;;;;22.85;14.85;;;3.80;99.90;;;;;;4951391;28;20223;-48
2023/01/21 10:39:15;;;;;;;20.17;13.40;;;3.20;99.90;;;;;;4951188;28;20195;-48
2023/01/21 10:41:56;;;;;;;24.73;14.80;;;3.20;99.90;;;;;;4951214;28;20203;-47
2023/01/21 10:44:30;;;;;;;21.05;12.63;;;3.90;99.90;;;;;;4951503;28;20206;-47
2023/01/21 10:47:04;;;;;;;23.10;13.77;;;3.70;99.90;;;;;;4951393;28;20245;-48
2023/01/21 10:49:44;;;;;;;21.98;14.15;;;3.40;99.90;;;;;;4951867;28;20199;-48
2023/01/21 10:52:17;;;;;;;21.02;12.80;;;3.40;99.90;;;;;;4951812;28;20227;-47
2023/01/21 10:54:51;;;;;;;21.13;13.70;;;3.60;99.90;;;;;;4951813;29;20188;-48
2023/01/21 10:57:34;;;;;;;20.52;13.30;;;3.70;99.90;;;;;;4951337;29;20207;-47
2023/01/21 11:00:03;;;;;;;20.48;13.52;;;3.50;99.90;;;;;;4951200;28;20214;-47
2023/01/21 11:02:32;;;;;;;18.40;12.40;;;3.80;99.90;;;;;;4951159;28;20219;-48
2023/01/21 11:05:02;;;;;;;16.70;12.82;;;3.60;99.90;;;;;;4951250;28;20199;-49
2023/01/21 11:07:34;;;;;;;17.83;13.25;;;3.60;99.90;;;;;;4951019;28;20207;-49
2023/01/21 11:10:02;;;;;;;16.48;12.98;;;3.70;99.90;;;;;;4951164;29;20199;-48
2023/01/21 11:12:29;;;;;;;17.55;12.43;;;3.70;99.90;;;;;;4950822;28;20206;-46
2023/01/21 11:14:58;;;;;;;18.77;12.15;;;3.80;99.90;;;;;;4951390;28;20211;-48
2023/01/21 11:17:33;;;;;;;19.73;12.93;;;3.20;99.90;;;;;;4950908;29;20195;-47
2023/01/21 11:20:01;;;;;;;18.55;13.30;;;3.70;99.90;;;;;;4950091;29;20206;-48
2023/01/21 11:22:31;;;;;;;19.70;13.88;;;3.60;99.90;;;;;;4950901;28;20576;-49
2023/01/21 11:24:59;;;;;;;16.73;11.93;;;4.20;99.90;;;;;;4953237;28;20684;-48
2023/01/21 11:27:33;;;;;;;15.88;12.30;;;4.20;99.90;;;;;;4954510;28;20329;-49
2023/01/21 11:30:01;;;;;;;17.08;12.70;;;3.70;99.90;;;;;;4954065;28;20230;-48
2023/01/21 11:32:29;;;;;;;17.88;11.70;;;3.80;99.90;;;;;;4954285;29;20203;-48
2023/01/21 11:35:02;;;;;;;16.05;12.02;;;4.10;99.90;;;;;;4954329;28;20211;-48
2023/01/21 11:37:31;;;;;;;17.45;13.10;;;3.90;99.90;;;;;;4954572;28;20203;-48
2023/01/21 11:40:00;;;;;;;16.77;12.02;;;3.90;99.90;;;;;;4953957;28;20200;-48
2023/01/21 11:42:27;;;;;;;16.08;12.45;;;3.90;99.90;;;;;;4954100;28;20211;-47
2023/01/21 11:44:56;;;;;;;15.43;12.20;;;4.00;99.90;;;;;;4954662;28;20575;-48
2023/01/21 11:47:29;;;;;;;18.73;12.05;;;3.90;99.90;;;;;;4954193;29;20629;-48
2023/01/21 11:50:03;;;;;;;20.63;13.40;;;4.10;99.90;;;;;;4954115;28;20208;-47
2023/01/21 11:52:30;;;;;;;15.63;11.73;;;3.70;99.90;;;;;;4953850;29;20215;-48
2023/01/21 11:54:57;;;;;;;16.98;12.10;;;4.00;99.90;;;;;;4954616;28;20215;-47
2023/01/21 11:57:29;;;;;;;16.88;11.70;;;3.60;99.90;;;;;;4953552;29;20207;-48
2023/01/21 12:00:03;;;;;;;15.80;11.82;;;3.70;99.90;;;;;;4953339;28;20210;-48
2023/01/21 12:02:43;;;;;;;19.77;11.38;;;4.70;99.90;;;;;;4954143;28;20576;-48
2023/01/21 12:05:14;;;;;;;14.02;10.57;;;4.20;99.90;;;;;;4953811;28;20196;-48
2023/01/21 12:07:47;;;;;;;13.45;9.77;;;4.10;99.90;;;;;;4954552;28;20691;-49
2023/01/21 12:10:27;;;;;;;11.65;9.63;;;4.40;99.90;;;;;;4953411;29;20213;-48
2023/01/21 12:13:15;;;;;;;15.20;11.00;;;4.20;99.90;;;;;;4953562;28;20203;-48
2023/01/21 12:16:02;;;;;;;14.77;10.38;;;4.30;99.90;;;;;;4953363;28;20238;-48
2023/01/21 12:18:41;;;;;;;16.83;9.48;;;4.40;99.90;;;;;;4954260;28;20224;-48
2023/01/21 12:21:20;;;;;;;15.20;8.43;;;4.10;99.90;;;;;;4953325;28;20774;-48
2023/01/21 12:24:01;;;;;;;13.32;8.45;;;4.50;99.90;;;;;;4953383;29;20230;-49
2023/01/21 12:26:35;;;;;;;12.80;8.85;;;5.00;99.90;;;;;;4953687;28;20566;-48
2023/01/21 12:29:18;;;;;;;10.40;7.72;;;4.40;99.90;;;;;;4953063;28;20648;-49
2023/01/21 12:31:51;;;;;;;11.38;8.13;;;4.70;99.90;;;;;;4952811;28;20207;-49
2023/01/21 12:34:25;;;;;;;10.88;6.45;;;4.30;99.90;;;;;;4953432;28;20206;-48
2023/01/21 12:36:57;;;;;;;15.25;10.88;;;4.80;99.90;;;;;;4953224;28;20687;-49
2023/01/21 12:39:28;;;;;;;12.90;8.68;;;4.60;99.90;;;;;;4952472;28;20222;-48
2023/01/21 12:42:05;;;;;;;10.15;6.82;;;4.70;99.90;;;;;;4953243;28;20207;-48
2023/01/21 12:44:37;;;;;;;9.48;7.20;;;4.40;99.90;;;;;;4953026;28;20234;-48
2023/01/21 12:47:11;;;;;;;10.70;7.40;;;4.20;99.90;;;;;;4952866;28;20227;-48
2023/01/21 12:50:03;;;;;;;8.82;6.95;;;4.70;99.90;;;;;;4952770;28;20203;-48
2023/01/21 12:52:37;;;;;;;18.38;6.75;;;4.80;99.90;;;;;;4952928;29;20210;-48
2023/01/21 12:55:13;;;;;;;7.28;5.40;;;4.60;99.90;;;;;;4953233;28;20211;-48
2023/01/21 12:57:45;;;;;;;10.95;6.00;;;4.60;99.90;;;;;;4952615;29;20233;-48
2023/01/21 13:00:16;;;;;;;7.25;5.20;;;4.70;99.90;;;;;;4952230;28;20212;-50